sensor_id;sensor_type;location;lat;lon;timestamp;P1;durP1;ratioP1;P2;durP2;ratioP2
63906;SDS011;50075;49.484;11.238;2024-02-16T00:00:02;61.15;;;29.70;;
63906;SDS011;50075;49.484;11.238;2024-02-16T00:02:28;65.47;;;30.98;;
63906;SDS011;50075;49.484;11.238;2024-02-16T00:04:53;109.85;;;34.13;;
63906;SDS011;50075;49.484;11.238;2024-02-16T00:07:19;53.13;;;26.33;;
63906;SDS011;50075;49.484;11.238;2024-02-16T00:09:44;100.57;;;34.08;;
63906;SDS011;50075;49.484;11.238;2024-02-16T00:12:09;82.78;;;30.05;;
63906;SDS011;50075;49.484;11.238;2024-02-16T00:14:35;52.15;;;25.38;;
63906;SDS011;50075;49.484;11.238;2024-02-16T00:17:00;68.43;;;27.05;;
63906;SDS011;50075;49.484;11.238;2024-02-16T00:19:25;121.95;;;29.65;;
63906;SDS011;50075;49.484;11.238;2024-02-16T00:21:52;103.78;;;28.63;;
63906;SDS011;50075;49.484;11.238;2024-02-16T00:24:18;48.80;;;25.10;;
63906;SDS011;50075;49.484;11.238;2024-02-16T00:26:43;96.75;;;28.00;;
63906;SDS011;50075;49.484;11.238;2024-02-16T00:29:10;65.47;;;28.75;;
63906;SDS011;50075;49.484;11.238;2024-02-16T00:31:36;63.42;;;27.48;;
63906;SDS011;50075;49.484;11.238;2024-02-16T00:34:01;70.78;;;28.65;;
63906;SDS011;50075;49.484;11.238;2024-02-16T00:36:26;66.57;;;28.65;;
63906;SDS011;50075;49.484;11.238;2024-02-16T00:38:52;124.00;;;30.98;;
63906;SDS011;50075;49.484;11.238;2024-02-16T00:41:21;62.65;;;28.60;;
63906;SDS011;50075;49.484;11.238;2024-02-16T00:43:48;102.85;;;33.30;;
63906;SDS011;50075;49.484;11.238;2024-02-16T00:46:14;89.35;;;32.78;;
63906;SDS011;50075;49.484;11.238;2024-02-16T00:48:40;65.60;;;30.17;;
63906;SDS011;50075;49.484;11.238;2024-02-16T00:51:05;58.42;;;28.45;;
63906;SDS011;50075;49.484;11.238;2024-02-16T00:53:30;80.88;;;30.42;;
63906;SDS011;50075;49.484;11.238;2024-02-16T00:55:55;100.63;;;31.98;;
63906;SDS011;50075;49.484;11.238;2024-02-16T00:58:21;60.30;;;29.67;;
63906;SDS011;50075;49.484;11.238;2024-02-16T01:00:46;115.55;;;32.13;;
63906;SDS011;50075;49.484;11.238;2024-02-16T01:03:11;76.57;;;30.60;;
63906;SDS011;50075;49.484;11.238;2024-02-16T01:05:39;74.78;;;29.58;;
63906;SDS011;50075;49.484;11.238;2024-02-16T01:08:08;85.30;;;28.13;;
63906;SDS011;50075;49.484;11.238;2024-02-16T01:10:33;89.50;;;36.85;;
63906;SDS011;50075;49.484;11.238;2024-02-16T01:12:58;115.78;;;27.92;;
63906;SDS011;50075;49.484;11.238;2024-02-16T01:15:24;79.13;;;26.67;;
63906;SDS011;50075;49.484;11.238;2024-02-16T01:17:49;101.53;;;27.33;;
63906;SDS011;50075;49.484;11.238;2024-02-16T01:20:15;79.28;;;25.13;;
63906;SDS011;50075;49.484;11.238;2024-02-16T01:22:40;85.78;;;24.90;;
63906;SDS011;50075;49.484;11.238;2024-02-16T01:25:06;67.90;;;26.17;;
63906;SDS011;50075;49.484;11.238;2024-02-16T01:27:33;95.50;;;27.58;;
63906;SDS011;50075;49.484;11.238;2024-02-16T01:29:59;115.28;;;29.60;;
63906;SDS011;50075;49.484;11.238;2024-02-16T01:32:25;73.60;;;21.38;;
63906;SDS011;50075;49.484;11.238;2024-02-16T01:34:51;127.13;;;27.70;;
63906;SDS011;50075;49.484;11.238;2024-02-16T01:37:16;67.65;;;22.05;;
63906;SDS011;50075;49.484;11.238;2024-02-16T01:39:41;64.57;;;22.75;;
63906;SDS011;50075;49.484;11.238;2024-02-16T01:42:07;92.00;;;25.70;;
63906;SDS011;50075;49.484;11.238;2024-02-16T01:44:32;67.53;;;22.73;;
63906;SDS011;50075;49.484;11.238;2024-02-16T01:46:58;103.60;;;26.65;;
63906;SDS011;50075;49.484;11.238;2024-02-16T01:49:23;104.55;;;26.02;;
63906;SDS011;50075;49.484;11.238;2024-02-16T01:51:49;82.95;;;23.67;;
63906;SDS011;50075;49.484;11.238;2024-02-16T01:54:14;67.50;;;22.58;;
63906;SDS011;50075;49.484;11.238;2024-02-16T01:56:42;82.45;;;23.75;;
63906;SDS011;50075;49.484;11.238;2024-02-16T01:59:09;73.70;;;23.58;;
63906;SDS011;50075;49.484;11.238;2024-02-16T02:01:34;82.07;;;26.10;;
63906;SDS011;50075;49.484;11.238;2024-02-16T02:04:00;135.55;;;29.08;;
63906;SDS011;50075;49.484;11.238;2024-02-16T02:06:25;72.43;;;23.60;;
63906;SDS011;50075;49.484;11.238;2024-02-16T02:08:51;130.57;;;29.85;;
63906;SDS011;50075;49.484;11.238;2024-02-16T02:11:16;66.53;;;26.63;;
63906;SDS011;50075;49.484;11.238;2024-02-16T02:13:42;86.75;;;35.90;;
63906;SDS011;50075;49.484;11.238;2024-02-16T02:16:07;91.90;;;28.02;;
63906;SDS011;50075;49.484;11.238;2024-02-16T02:18:34;71.70;;;28.20;;
63906;SDS011;50075;49.484;11.238;2024-02-16T02:21:00;107.93;;;24.38;;
63906;SDS011;50075;49.484;11.238;2024-02-16T02:23:25;90.45;;;28.88;;
63906;SDS011;50075;49.484;11.238;2024-02-16T02:25:50;91.30;;;29.02;;
63906;SDS011;50075;49.484;11.238;2024-02-16T02:28:16;69.55;;;28.52;;
63906;SDS011;50075;49.484;11.238;2024-02-16T02:30:41;96.75;;;30.20;;
63906;SDS011;50075;49.484;11.238;2024-02-16T02:33:09;77.22;;;27.83;;
63906;SDS011;50075;49.484;11.238;2024-02-16T02:35:36;65.30;;;28.67;;
63906;SDS011;50075;49.484;11.238;2024-02-16T02:38:01;120.03;;;32.35;;
63906;SDS011;50075;49.484;11.238;2024-02-16T02:40:27;73.25;;;27.48;;
63906;SDS011;50075;49.484;11.238;2024-02-16T02:42:52;99.20;;;29.95;;
63906;SDS011;50075;49.484;11.238;2024-02-16T02:45:18;73.30;;;28.77;;
63906;SDS011;50075;49.484;11.238;2024-02-16T02:47:43;67.72;;;26.08;;
63906;SDS011;50075;49.484;11.238;2024-02-16T02:50:09;80.82;;;33.40;;
63906;SDS011;50075;49.484;11.238;2024-02-16T02:52:34;72.35;;;28.67;;
63906;SDS011;50075;49.484;11.238;2024-02-16T02:55:00;102.95;;;39.80;;
63906;SDS011;50075;49.484;11.238;2024-02-16T02:57:25;81.80;;;28.30;;
63906;SDS011;50075;49.484;11.238;2024-02-16T02:59:50;69.32;;;23.83;;
63906;SDS011;50075;49.484;11.238;2024-02-16T03:02:15;65.32;;;26.17;;
63906;SDS011;50075;49.484;11.238;2024-02-16T03:04:42;88.30;;;27.80;;
63906;SDS011;50075;49.484;11.238;2024-02-16T03:07:07;104.47;;;26.63;;
63906;SDS011;50075;49.484;11.238;2024-02-16T03:09:33;110.20;;;26.40;;
63906;SDS011;50075;49.484;11.238;2024-02-16T03:11:58;140.05;;;28.80;;
63906;SDS011;50075;49.484;11.238;2024-02-16T03:14:23;68.85;;;24.98;;
63906;SDS011;50075;49.484;11.238;2024-02-16T03:16:49;76.28;;;25.83;;
63906;SDS011;50075;49.484;11.238;2024-02-16T03:19:14;97.13;;;25.75;;
63906;SDS011;50075;49.484;11.238;2024-02-16T03:21:39;61.78;;;24.33;;
63906;SDS011;50075;49.484;11.238;2024-02-16T03:24:05;94.13;;;27.73;;
63906;SDS011;50075;49.484;11.238;2024-02-16T03:26:30;92.82;;;26.65;;
63906;SDS011;50075;49.484;11.238;2024-02-16T03:28:57;115.00;;;28.10;;
63906;SDS011;50075;49.484;11.238;2024-02-16T03:31:23;70.78;;;23.00;;
63906;SDS011;50075;49.484;11.238;2024-02-16T03:33:49;106.47;;;26.15;;
63906;SDS011;50075;49.484;11.238;2024-02-16T03:36:16;66.07;;;22.15;;
63906;SDS011;50075;49.484;11.238;2024-02-16T03:38:45;59.55;;;23.10;;
63906;SDS011;50075;49.484;11.238;2024-02-16T03:41:14;91.50;;;25.13;;
63906;SDS011;50075;49.484;11.238;2024-02-16T03:43:42;67.57;;;25.00;;
63906;SDS011;50075;49.484;11.238;2024-02-16T03:46:08;125.13;;;26.42;;
63906;SDS011;50075;49.484;11.238;2024-02-16T03:48:33;72.43;;;22.90;;
63906;SDS011;50075;49.484;11.238;2024-02-16T03:50:59;116.97;;;25.38;;
63906;SDS011;50075;49.484;11.238;2024-02-16T03:53:24;92.32;;;23.20;;
63906;SDS011;50075;49.484;11.238;2024-02-16T03:55:49;70.63;;;25.02;;
63906;SDS011;50075;49.484;11.238;2024-02-16T03:58:15;71.63;;;29.77;;
63906;SDS011;50075;49.484;11.238;2024-02-16T04:00:41;92.07;;;24.48;;
63906;SDS011;50075;49.484;11.238;2024-02-16T04:03:07;86.93;;;26.38;;
63906;SDS011;50075;49.484;11.238;2024-02-16T04:05:32;66.68;;;24.73;;
63906;SDS011;50075;49.484;11.238;2024-02-16T04:08:00;106.10;;;32.20;;
63906;SDS011;50075;49.484;11.238;2024-02-16T04:10:27;72.03;;;23.95;;
63906;SDS011;50075;49.484;11.238;2024-02-16T04:12:53;73.82;;;24.48;;
63906;SDS011;50075;49.484;11.238;2024-02-16T04:15:19;67.05;;;20.80;;
63906;SDS011;50075;49.484;11.238;2024-02-16T04:17:44;65.38;;;19.73;;
63906;SDS011;50075;49.484;11.238;2024-02-16T04:20:09;123.78;;;25.33;;
63906;SDS011;50075;49.484;11.238;2024-02-16T04:22:36;57.65;;;19.92;;
63906;SDS011;50075;49.484;11.238;2024-02-16T04:25:03;101.72;;;23.70;;
63906;SDS011;50075;49.484;11.238;2024-02-16T04:27:29;77.47;;;21.65;;
63906;SDS011;50075;49.484;11.238;2024-02-16T04:29:54;58.63;;;22.25;;
63906;SDS011;50075;49.484;11.238;2024-02-16T04:32:20;70.38;;;22.23;;
63906;SDS011;50075;49.484;11.238;2024-02-16T04:34:45;97.70;;;24.85;;
63906;SDS011;50075;49.484;11.238;2024-02-16T04:37:12;68.85;;;22.85;;
63906;SDS011;50075;49.484;11.238;2024-02-16T04:39:38;98.80;;;25.15;;
63906;SDS011;50075;49.484;11.238;2024-02-16T04:42:03;100.75;;;25.67;;
63906;SDS011;50075;49.484;11.238;2024-02-16T04:44:29;58.50;;;21.95;;
63906;SDS011;50075;49.484;11.238;2024-02-16T04:46:54;67.43;;;23.70;;
63906;SDS011;50075;49.484;11.238;2024-02-16T04:49:20;79.18;;;24.70;;
63906;SDS011;50075;49.484;11.238;2024-02-16T04:51:46;66.28;;;24.20;;
63906;SDS011;50075;49.484;11.238;2024-02-16T04:54:12;75.72;;;25.50;;
63906;SDS011;50075;49.484;11.238;2024-02-16T04:56:38;80.50;;;26.08;;
63906;SDS011;50075;49.484;11.238;2024-02-16T04:59:04;81.15;;;24.77;;
63906;SDS011;50075;49.484;11.238;2024-02-16T05:01:29;78.38;;;24.17;;
63906;SDS011;50075;49.484;11.238;2024-02-16T05:03:56;84.30;;;26.27;;
63906;SDS011;50075;49.484;11.238;2024-02-16T05:06:23;76.00;;;26.63;;
63906;SDS011;50075;49.484;11.238;2024-02-16T05:08:48;95.75;;;24.27;;
63906;SDS011;50075;49.484;11.238;2024-02-16T05:11:15;61.75;;;26.75;;
63906;SDS011;50075;49.484;11.238;2024-02-16T05:13:40;65.53;;;27.48;;
63906;SDS011;50075;49.484;11.238;2024-02-16T05:16:08;107.78;;;28.30;;
63906;SDS011;50075;49.484;11.238;2024-02-16T05:18:34;64.63;;;26.90;;
63906;SDS011;50075;49.484;11.238;2024-02-16T05:20:59;89.30;;;29.45;;
63906;SDS011;50075;49.484;11.238;2024-02-16T05:23:25;80.85;;;27.83;;
63906;SDS011;50075;49.484;11.238;2024-02-16T05:25:50;80.07;;;38.28;;
63906;SDS011;50075;49.484;11.238;2024-02-16T05:28:15;68.47;;;25.58;;
63906;SDS011;50075;49.484;11.238;2024-02-16T05:30:41;73.15;;;24.05;;
63906;SDS011;50075;49.484;11.238;2024-02-16T05:33:06;63.95;;;23.73;;
63906;SDS011;50075;49.484;11.238;2024-02-16T05:35:31;67.43;;;24.25;;
63906;SDS011;50075;49.484;11.238;2024-02-16T05:37:59;96.97;;;25.38;;
63906;SDS011;50075;49.484;11.238;2024-02-16T05:40:31;70.97;;;24.65;;
63906;SDS011;50075;49.484;11.238;2024-02-16T05:43:09;100.38;;;24.15;;
63906;SDS011;50075;49.484;11.238;2024-02-16T05:45:34;63.17;;;21.17;;
63906;SDS011;50075;49.484;11.238;2024-02-16T05:48:00;72.15;;;23.80;;
63906;SDS011;50075;49.484;11.238;2024-02-16T05:50:26;96.50;;;27.30;;
63906;SDS011;50075;49.484;11.238;2024-02-16T05:52:51;88.72;;;26.10;;
63906;SDS011;50075;49.484;11.238;2024-02-16T05:55:17;79.47;;;22.60;;
63906;SDS011;50075;49.484;11.238;2024-02-16T05:57:44;70.88;;;23.63;;
63906;SDS011;50075;49.484;11.238;2024-02-16T06:00:09;73.15;;;24.25;;
63906;SDS011;50075;49.484;11.238;2024-02-16T06:02:35;77.45;;;24.65;;
63906;SDS011;50075;49.484;11.238;2024-02-16T06:05:02;92.97;;;24.15;;
63906;SDS011;50075;49.484;11.238;2024-02-16T06:07:28;68.38;;;25.73;;
63906;SDS011;50075;49.484;11.238;2024-02-16T06:09:55;86.55;;;22.15;;
63906;SDS011;50075;49.484;11.238;2024-02-16T06:12:21;58.03;;;24.38;;
63906;SDS011;50075;49.484;11.238;2024-02-16T06:14:46;73.57;;;24.20;;
63906;SDS011;50075;49.484;11.238;2024-02-16T06:17:13;101.40;;;25.75;;
63906;SDS011;50075;49.484;11.238;2024-02-16T06:19:39;82.35;;;25.30;;
63906;SDS011;50075;49.484;11.238;2024-02-16T06:22:05;80.88;;;25.58;;
63906;SDS011;50075;49.484;11.238;2024-02-16T06:24:31;77.03;;;24.33;;
63906;SDS011;50075;49.484;11.238;2024-02-16T06:26:57;83.95;;;25.95;;
63906;SDS011;50075;49.484;11.238;2024-02-16T06:29:22;72.10;;;25.40;;
63906;SDS011;50075;49.484;11.238;2024-02-16T06:31:48;97.20;;;30.50;;
63906;SDS011;50075;49.484;11.238;2024-02-16T06:34:13;108.80;;;28.80;;
63906;SDS011;50075;49.484;11.238;2024-02-16T06:36:40;69.43;;;28.38;;
63906;SDS011;50075;49.484;11.238;2024-02-16T06:39:05;93.97;;;32.78;;
63906;SDS011;50075;49.484;11.238;2024-02-16T06:41:31;75.57;;;29.38;;
63906;SDS011;50075;49.484;11.238;2024-02-16T06:43:56;94.65;;;34.10;;
63906;SDS011;50075;49.484;11.238;2024-02-16T06:46:21;94.60;;;29.73;;
63906;SDS011;50075;49.484;11.238;2024-02-16T06:48:47;84.47;;;29.80;;
63906;SDS011;50075;49.484;11.238;2024-02-16T06:51:12;97.25;;;30.00;;
63906;SDS011;50075;49.484;11.238;2024-02-16T06:53:38;80.20;;;27.02;;
63906;SDS011;50075;49.484;11.238;2024-02-16T06:56:03;92.20;;;27.80;;
63906;SDS011;50075;49.484;11.238;2024-02-16T06:58:28;87.32;;;27.92;;
63906;SDS011;50075;49.484;11.238;2024-02-16T07:00:54;95.05;;;29.85;;
63906;SDS011;50075;49.484;11.238;2024-02-16T07:03:20;81.63;;;29.80;;
63906;SDS011;50075;49.484;11.238;2024-02-16T07:05:45;88.65;;;30.00;;
63906;SDS011;50075;49.484;11.238;2024-02-16T07:08:10;104.68;;;29.60;;
63906;SDS011;50075;49.484;11.238;2024-02-16T07:10:36;59.22;;;27.08;;
63906;SDS011;50075;49.484;11.238;2024-02-16T07:13:01;98.05;;;27.55;;
63906;SDS011;50075;49.484;11.238;2024-02-16T07:15:27;64.20;;;25.90;;
63906;SDS011;50075;49.484;11.238;2024-02-16T07:17:53;77.85;;;26.52;;
63906;SDS011;50075;49.484;11.238;2024-02-16T07:20:18;101.75;;;27.85;;
63906;SDS011;50075;49.484;11.238;2024-02-16T07:22:44;85.07;;;27.45;;
63906;SDS011;50075;49.484;11.238;2024-02-16T07:25:11;87.38;;;24.63;;
63906;SDS011;50075;49.484;11.238;2024-02-16T07:27:37;86.55;;;30.50;;
63906;SDS011;50075;49.484;11.238;2024-02-16T07:30:03;72.05;;;25.77;;
63906;SDS011;50075;49.484;11.238;2024-02-16T07:32:29;65.55;;;23.73;;
63906;SDS011;50075;49.484;11.238;2024-02-16T07:34:54;96.78;;;23.92;;
63906;SDS011;50075;49.484;11.238;2024-02-16T07:37:20;120.25;;;41.50;;
63906;SDS011;50075;49.484;11.238;2024-02-16T07:39:45;64.93;;;23.10;;
63906;SDS011;50075;49.484;11.238;2024-02-16T07:42:10;95.88;;;23.70;;
63906;SDS011;50075;49.484;11.238;2024-02-16T07:44:37;69.15;;;23.80;;
63906;SDS011;50075;49.484;11.238;2024-02-16T07:47:03;69.90;;;21.90;;
63906;SDS011;50075;49.484;11.238;2024-02-16T07:49:29;125.15;;;24.05;;
63906;SDS011;50075;49.484;11.238;2024-02-16T07:51:54;66.18;;;18.88;;
63906;SDS011;50075;49.484;11.238;2024-02-16T07:54:20;73.20;;;20.05;;
63906;SDS011;50075;49.484;11.238;2024-02-16T07:56:45;65.35;;;20.00;;
63906;SDS011;50075;49.484;11.238;2024-02-16T07:59:11;65.50;;;16.55;;
63906;SDS011;50075;49.484;11.238;2024-02-16T08:01:36;61.20;;;15.75;;
63906;SDS011;50075;49.484;11.238;2024-02-16T08:04:01;80.03;;;16.40;;
63906;SDS011;50075;49.484;11.238;2024-02-16T08:06:27;47.30;;;12.75;;
63906;SDS011;50075;49.484;11.238;2024-02-16T08:08:53;65.65;;;12.65;;
63906;SDS011;50075;49.484;11.238;2024-02-16T08:11:18;62.83;;;13.30;;
63906;SDS011;50075;49.484;11.238;2024-02-16T08:13:45;45.25;;;11.23;;
63906;SDS011;50075;49.484;11.238;2024-02-16T08:16:10;69.90;;;12.70;;
63906;SDS011;50075;49.484;11.238;2024-02-16T08:18:35;38.58;;;10.95;;
63906;SDS011;50075;49.484;11.238;2024-02-16T08:21:01;50.90;;;12.25;;
63906;SDS011;50075;49.484;11.238;2024-02-16T08:23:27;63.97;;;13.48;;
63906;SDS011;50075;49.484;11.238;2024-02-16T08:25:52;53.13;;;12.63;;
63906;SDS011;50075;49.484;11.238;2024-02-16T08:28:17;65.65;;;12.18;;
63906;SDS011;50075;49.484;11.238;2024-02-16T08:30:43;58.85;;;12.60;;
63906;SDS011;50075;49.484;11.238;2024-02-16T08:33:09;52.60;;;11.82;;
63906;SDS011;50075;49.484;11.238;2024-02-16T08:35:35;49.58;;;13.75;;
63906;SDS011;50075;49.484;11.238;2024-02-16T08:38:00;75.07;;;17.00;;
63906;SDS011;50075;49.484;11.238;2024-02-16T08:40:26;46.47;;;13.00;;
63906;SDS011;50075;49.484;11.238;2024-02-16T08:42:51;44.63;;;13.00;;
63906;SDS011;50075;49.484;11.238;2024-02-16T08:45:16;82.63;;;15.65;;
63906;SDS011;50075;49.484;11.238;2024-02-16T08:47:43;43.85;;;12.82;;
63906;SDS011;50075;49.484;11.238;2024-02-16T08:50:09;52.10;;;13.07;;
63906;SDS011;50075;49.484;11.238;2024-02-16T08:52:35;61.80;;;13.77;;
63906;SDS011;50075;49.484;11.238;2024-02-16T08:55:00;54.33;;;13.65;;
63906;SDS011;50075;49.484;11.238;2024-02-16T08:57:26;45.33;;;12.27;;
63906;SDS011;50075;49.484;11.238;2024-02-16T08:59:51;62.35;;;13.48;;
63906;SDS011;50075;49.484;11.238;2024-02-16T09:02:16;71.25;;;13.73;;
63906;SDS011;50075;49.484;11.238;2024-02-16T09:04:42;50.83;;;11.98;;
63906;SDS011;50075;49.484;11.238;2024-02-16T09:07:07;54.75;;;11.85;;
63906;SDS011;50075;49.484;11.238;2024-02-16T09:09:33;73.82;;;12.50;;
63906;SDS011;50075;49.484;11.238;2024-02-16T09:11:58;51.90;;;12.80;;
63906;SDS011;50075;49.484;11.238;2024-02-16T09:14:23;60.83;;;13.00;;
63906;SDS011;50075;49.484;11.238;2024-02-16T09:16:49;47.97;;;12.38;;
63906;SDS011;50075;49.484;11.238;2024-02-16T09:19:17;71.05;;;13.30;;
63906;SDS011;50075;49.484;11.238;2024-02-16T09:21:44;35.58;;;11.13;;
63906;SDS011;50075;49.484;11.238;2024-02-16T09:24:10;39.35;;;11.55;;
63906;SDS011;50075;49.484;11.238;2024-02-16T09:26:39;59.15;;;12.40;;
63906;SDS011;50075;49.484;11.238;2024-02-16T09:29:04;40.25;;;10.93;;
63906;SDS011;50075;49.484;11.238;2024-02-16T09:31:29;43.75;;;11.35;;
63906;SDS011;50075;49.484;11.238;2024-02-16T09:33:55;62.30;;;12.90;;
63906;SDS011;50075;49.484;11.238;2024-02-16T09:36:21;47.28;;;11.23;;
63906;SDS011;50075;49.484;11.238;2024-02-16T09:38:48;36.13;;;10.82;;
63906;SDS011;50075;49.484;11.238;2024-02-16T09:41:13;65.55;;;13.05;;
63906;SDS011;50075;49.484;11.238;2024-02-16T09:43:41;32.58;;;10.35;;
63906;SDS011;50075;49.484;11.238;2024-02-16T09:46:07;41.85;;;11.02;;
63906;SDS011;50075;49.484;11.238;2024-02-16T09:48:33;44.42;;;11.23;;
63906;SDS011;50075;49.484;11.238;2024-02-16T09:50:59;41.53;;;10.27;;
63906;SDS011;50075;49.484;11.238;2024-02-16T09:53:26;54.45;;;10.35;;
63906;SDS011;50075;49.484;11.238;2024-02-16T09:55:52;51.67;;;10.70;;
63906;SDS011;50075;49.484;11.238;2024-02-16T09:58:18;54.55;;;12.23;;
63906;SDS011;50075;49.484;11.238;2024-02-16T10:00:50;44.90;;;12.98;;
63906;SDS011;50075;49.484;11.238;2024-02-16T10:03:21;41.75;;;18.02;;
63906;SDS011;50075;49.484;11.238;2024-02-16T10:06:15;60.25;;;14.35;;
63906;SDS011;50075;49.484;11.238;2024-02-16T10:08:47;44.75;;;14.15;;
63906;SDS011;50075;49.484;11.238;2024-02-16T10:11:14;69.22;;;17.95;;
63906;SDS011;50075;49.484;11.238;2024-02-16T10:13:40;44.75;;;16.27;;
63906;SDS011;50075;49.484;11.238;2024-02-16T10:16:09;58.75;;;29.65;;
63906;SDS011;50075;49.484;11.238;2024-02-16T10:18:37;69.03;;;21.60;;
63906;SDS011;50075;49.484;11.238;2024-02-16T10:21:03;47.00;;;16.55;;
63906;SDS011;50075;49.484;11.238;2024-02-16T10:23:29;67.53;;;15.07;;
63906;SDS011;50075;49.484;11.238;2024-02-16T10:25:54;54.08;;;14.13;;
63906;SDS011;50075;49.484;11.238;2024-02-16T10:28:20;74.22;;;23.33;;
63906;SDS011;50075;49.484;11.238;2024-02-16T10:30:52;68.68;;;14.13;;
63906;SDS011;50075;49.484;11.238;2024-02-16T10:33:22;44.90;;;11.15;;
63906;SDS011;50075;49.484;11.238;2024-02-16T10:35:49;39.17;;;10.50;;
63906;SDS011;50075;49.484;11.238;2024-02-16T10:38:16;73.47;;;12.35;;
63906;SDS011;50075;49.484;11.238;2024-02-16T10:40:43;38.78;;;9.85;;
63906;SDS011;50075;49.484;11.238;2024-02-16T10:43:10;37.05;;;9.32;;
63906;SDS011;50075;49.484;11.238;2024-02-16T10:45:38;34.30;;;8.98;;
63906;SDS011;50075;49.484;11.238;2024-02-16T10:48:05;40.42;;;10.50;;
63906;SDS011;50075;49.484;11.238;2024-02-16T10:50:33;48.63;;;10.75;;
63906;SDS011;50075;49.484;11.238;2024-02-16T10:53:45;47.53;;;10.07;;
63906;SDS011;50075;49.484;11.238;2024-02-16T10:55:50;64.47;;;12.10;;
63906;SDS011;50075;49.484;11.238;2024-02-16T10:58:18;50.20;;;10.75;;
63906;SDS011;50075;49.484;11.238;2024-02-16T11:03:23;46.17;;;10.43;;
63906;SDS011;50075;49.484;11.238;2024-02-16T11:05:50;41.58;;;10.20;;
63906;SDS011;50075;49.484;11.238;2024-02-16T11:08:17;58.42;;;11.10;;
63906;SDS011;50075;49.484;11.238;2024-02-16T11:10:57;47.80;;;10.88;;
63906;SDS011;50075;49.484;11.238;2024-02-16T11:13:26;87.25;;;13.23;;
63906;SDS011;50075;49.484;11.238;2024-02-16T11:16:00;43.45;;;10.45;;
63906;SDS011;50075;49.484;11.238;2024-02-16T11:18:37;70.80;;;11.60;;
63906;SDS011;50075;49.484;11.238;2024-02-16T11:21:03;44.42;;;9.73;;
63906;SDS011;50075;49.484;11.238;2024-02-16T11:23:29;52.95;;;11.15;;
63906;SDS011;50075;49.484;11.238;2024-02-16T11:30:54;53.70;;;10.38;;
63906;SDS011;50075;49.484;11.238;2024-02-16T11:33:19;84.15;;;12.52;;
63906;SDS011;50075;49.484;11.238;2024-02-16T11:36:01;58.20;;;11.45;;
63906;SDS011;50075;49.484;11.238;2024-02-16T11:38:30;83.35;;;12.85;;
63906;SDS011;50075;49.484;11.238;2024-02-16T11:40:58;52.40;;;11.38;;
63906;SDS011;50075;49.484;11.238;2024-02-16T11:43:28;72.75;;;11.77;;
63906;SDS011;50075;49.484;11.238;2024-02-16T11:45:54;42.38;;;10.10;;
63906;SDS011;50075;49.484;11.238;2024-02-16T11:48:23;60.90;;;11.20;;
63906;SDS011;50075;49.484;11.238;2024-02-16T11:50:58;54.75;;;10.80;;
63906;SDS011;50075;49.484;11.238;2024-02-16T11:53:24;49.00;;;10.32;;
63906;SDS011;50075;49.484;11.238;2024-02-16T11:55:50;51.80;;;10.40;;
63906;SDS011;50075;49.484;11.238;2024-02-16T11:58:16;56.15;;;9.73;;
63906;SDS011;50075;49.484;11.238;2024-02-16T12:00:43;38.30;;;9.32;;
63906;SDS011;50075;49.484;11.238;2024-02-16T12:03:08;53.60;;;10.05;;
63906;SDS011;50075;49.484;11.238;2024-02-16T12:05:33;49.85;;;10.23;;
63906;SDS011;50075;49.484;11.238;2024-02-16T12:07:59;40.33;;;9.55;;
63906;SDS011;50075;49.484;11.238;2024-02-16T12:10:24;75.22;;;12.20;;
63906;SDS011;50075;49.484;11.238;2024-02-16T12:12:50;43.22;;;10.07;;
63906;SDS011;50075;49.484;11.238;2024-02-16T12:15:16;33.05;;;8.98;;
63906;SDS011;50075;49.484;11.238;2024-02-16T12:17:44;51.97;;;10.02;;
63906;SDS011;50075;49.484;11.238;2024-02-16T12:20:10;34.30;;;9.15;;
63906;SDS011;50075;49.484;11.238;2024-02-16T12:22:38;30.60;;;8.80;;
63906;SDS011;50075;49.484;11.238;2024-02-16T12:25:03;57.97;;;10.13;;
63906;SDS011;50075;49.484;11.238;2024-02-16T12:27:28;66.55;;;10.40;;
63906;SDS011;50075;49.484;11.238;2024-02-16T12:29:54;48.83;;;9.48;;
63906;SDS011;50075;49.484;11.238;2024-02-16T12:32:19;38.90;;;8.23;;
63906;SDS011;50075;49.484;11.238;2024-02-16T12:34:45;35.83;;;7.68;;
63906;SDS011;50075;49.484;11.238;2024-02-16T12:37:10;39.55;;;8.95;;
63906;SDS011;50075;49.484;11.238;2024-02-16T12:39:36;85.50;;;11.85;;
63906;SDS011;50075;49.484;11.238;2024-02-16T12:42:02;42.10;;;8.98;;
63906;SDS011;50075;49.484;11.238;2024-02-16T12:44:28;62.13;;;10.52;;
63906;SDS011;50075;49.484;11.238;2024-02-16T12:46:53;41.95;;;9.48;;
63906;SDS011;50075;49.484;11.238;2024-02-16T12:49:19;34.53;;;8.70;;
63906;SDS011;50075;49.484;11.238;2024-02-16T12:51:47;44.50;;;9.32;;
63906;SDS011;50075;49.484;11.238;2024-02-16T12:54:13;32.05;;;8.18;;
63906;SDS011;50075;49.484;11.238;2024-02-16T12:56:41;21.50;;;7.85;;
63906;SDS011;50075;49.484;11.238;2024-02-16T12:59:07;45.40;;;9.23;;
63906;SDS011;50075;49.484;11.238;2024-02-16T13:01:32;62.38;;;10.38;;
63906;SDS011;50075;49.484;11.238;2024-02-16T13:03:57;58.70;;;10.00;;
63906;SDS011;50075;49.484;11.238;2024-02-16T13:06:23;66.22;;;11.05;;
63906;SDS011;50075;49.484;11.238;2024-02-16T13:08:48;38.15;;;8.93;;
63906;SDS011;50075;49.484;11.238;2024-02-16T13:11:13;46.40;;;9.02;;
63906;SDS011;50075;49.484;11.238;2024-02-16T13:13:39;50.42;;;11.73;;
63906;SDS011;50075;49.484;11.238;2024-02-16T13:16:04;39.90;;;9.60;;
63906;SDS011;50075;49.484;11.238;2024-02-16T13:18:30;57.90;;;10.30;;
63906;SDS011;50075;49.484;11.238;2024-02-16T13:20:55;51.92;;;10.13;;
63906;SDS011;50075;49.484;11.238;2024-02-16T13:23:21;28.20;;;8.15;;
63906;SDS011;50075;49.484;11.238;2024-02-16T13:25:46;39.08;;;8.80;;
63906;SDS011;50075;49.484;11.238;2024-02-16T13:28:12;31.60;;;8.48;;
63906;SDS011;50075;49.484;11.238;2024-02-16T13:30:37;58.78;;;10.10;;
63906;SDS011;50075;49.484;11.238;2024-02-16T13:33:03;48.67;;;10.73;;
63906;SDS011;50075;49.484;11.238;2024-02-16T13:35:29;64.25;;;10.85;;
63906;SDS011;50075;49.484;11.238;2024-02-16T13:37:54;33.90;;;8.63;;
63906;SDS011;50075;49.484;11.238;2024-02-16T13:40:19;43.67;;;8.68;;
63906;SDS011;50075;49.484;11.238;2024-02-16T13:42:46;24.58;;;7.32;;
63906;SDS011;50075;49.484;11.238;2024-02-16T13:45:11;37.05;;;8.88;;
63906;SDS011;50075;49.484;11.238;2024-02-16T13:47:37;79.20;;;11.90;;
63906;SDS011;50075;49.484;11.238;2024-02-16T13:50:05;34.47;;;9.05;;
63906;SDS011;50075;49.484;11.238;2024-02-16T13:52:31;63.63;;;10.68;;
63906;SDS011;50075;49.484;11.238;2024-02-16T13:54:56;53.72;;;9.25;;
63906;SDS011;50075;49.484;11.238;2024-02-16T13:57:22;34.00;;;8.23;;
63906;SDS011;50075;49.484;11.238;2024-02-16T13:59:47;40.63;;;9.02;;
63906;SDS011;50075;49.484;11.238;2024-02-16T14:02:12;38.50;;;8.13;;
63906;SDS011;50075;49.484;11.238;2024-02-16T14:04:38;56.65;;;10.35;;
63906;SDS011;50075;49.484;11.238;2024-02-16T14:07:04;43.42;;;10.00;;
63906;SDS011;50075;49.484;11.238;2024-02-16T14:09:29;104.05;;;14.50;;